Time;durP1;ratioP1;P1;durP2;ratioP2;P2;SDS_P1;SDS_P2;PMS_P1;PMS_P2;Temp;Humidity;BMP_temperature;BMP_pressure;BME280_temperature;BME280_humidity;BME280_pressure;Samples;Min_cycle;Max_cycle;Signal;HPM_P1;HPM_P2
2023/03/30 00:00:48;;;;;;;4.93;3.33;;;10.60;99.90;;;;;;5063717;28;20041;-81
2023/03/30 00:03:18;;;;;;;6.28;4.53;;;10.60;99.90;;;;;;5062120;28;20037;-79
2023/03/30 00:05:45;;;;;;;6.68;3.83;;;10.60;99.90;;;;;;5065127;28;20555;-79
2023/03/30 00:08:13;;;;;;;9.55;3.72;;;10.60;99.90;;;;;;5065059;28;20087;-81
2023/03/30 00:10:39;;;;;;;6.70;3.20;;;10.60;99.90;;;;;;5046739;28;20123;-81
2023/03/30 00:13:06;;;;;;;4.10;3.60;;;10.60;99.90;;;;;;5063212;28;20075;-79
2023/03/30 00:15:33;;;;;;;6.22;3.40;;;10.60;99.90;;;;;;5046896;28;20087;-81
2023/03/30 00:18:00;;;;;;;6.30;2.75;;;10.60;99.90;;;;;;5064064;28;20047;-78
2023/03/30 00:20:26;;;;;;;5.45;3.80;;;10.60;99.90;;;;;;5063959;28;20146;-80
2023/03/30 00:22:52;;;;;;;5.35;3.22;;;10.60;99.90;;;;;;5063506;28;20238;-80
2023/03/30 00:25:17;;;;;;;5.82;2.45;;;10.60;99.90;;;;;;5046319;28;20517;-80
2023/03/30 00:27:44;;;;;;;3.78;3.08;;;10.70;99.90;;;;;;5063292;28;20494;-81
2023/03/30 00:30:15;;;;;;;11.00;3.92;;;10.70;99.90;;;;;;5064416;28;20089;-81
2023/03/30 00:32:42;;;;;;;7.15;3.20;;;10.70;99.90;;;;;;5062296;28;20491;-81
2023/03/30 00:35:09;;;;;;;4.13;3.22;;;10.70;99.90;;;;;;5062650;28;20174;-81
2023/03/30 00:37:36;;;;;;;5.80;2.70;;;10.70;99.90;;;;;;5063584;28;20040;-81
2023/03/30 00:40:03;;;;;;;4.35;3.63;;;10.70;99.90;;;;;;5046149;28;20052;-81
2023/03/30 00:42:29;;;;;;;3.90;2.55;;;10.70;99.90;;;;;;5064546;28;20044;-79
2023/03/30 00:45:25;;;;;;;6.40;3.45;;;10.80;99.90;;;;;;5063598;28;20063;-81
2023/03/30 00:48:02;;;;;;;4.30;3.17;;;10.80;99.90;;;;;;5060979;28;20337;-81
2023/03/30 00:50:34;;;;;;;4.38;2.78;;;10.80;99.90;;;;;;5064506;28;20109;-79
2023/03/30 00:53:02;;;;;;;3.70;2.50;;;10.80;99.90;;;;;;5062938;28;20041;-80
2023/03/30 00:55:30;;;;;;;3.55;2.72;;;10.80;99.90;;;;;;5064729;28;20041;-81
2023/03/30 00:57:56;;;;;;;7.00;2.70;;;10.80;99.90;;;;;;5063591;28;20052;-79
2023/03/30 01:00:22;;;;;;;3.35;2.47;;;10.80;99.90;;;;;;5062869;28;20040;-81
2023/03/30 01:02:57;;;;;;;4.13;2.60;;;10.80;99.90;;;;;;5063034;28;20045;-81
2023/03/30 01:05:24;;;;;;;5.60;2.53;;;10.80;99.90;;;;;;5045931;28;20044;-81
2023/03/30 01:07:50;;;;;;;4.78;2.70;;;10.80;99.90;;;;;;5064178;28;20364;-80
2023/03/30 01:10:16;;;;;;;9.25;2.97;;;10.80;99.90;;;;;;5064139;28;20403;-81
2023/03/30 01:12:43;;;;;;;5.20;2.88;;;10.80;99.90;;;;;;5116916;22;20545;-79
2023/03/30 01:15:09;;;;;;;2.67;2.30;;;10.80;99.90;;;;;;5003415;28;20526;-80
2023/03/30 01:18:07;;;;;;;5.18;2.65;;;10.90;99.90;;;;;;5002732;28;20038;-82
2023/03/30 01:20:33;;;;;;;5.85;2.65;;;10.90;99.90;;;;;;5002955;28;20042;-81
2023/03/30 01:23:17;;;;;;;6.32;2.83;;;11.00;99.90;;;;;;5003219;28;20561;-81
2023/03/30 01:26:12;;;;;;;2.88;2.45;;;10.90;99.90;;;;;;5003349;28;20101;-81
2023/03/30 01:28:57;;;;;;;3.85;3.42;;;11.00;99.90;;;;;;4995726;28;20057;-81
2023/03/30 01:31:41;;;;;;;3.67;2.65;;;11.00;99.90;;;;;;4986288;28;20056;-79
2023/03/30 01:34:31;;;;;;;4.38;2.55;;;11.00;99.90;;;;;;5002155;28;20042;-81
2023/03/30 01:37:13;;;;;;;5.32;2.75;;;11.00;99.90;;;;;;5003202;28;20151;-80
2023/03/30 01:40:20;;;;;;;3.63;1.77;;;11.00;99.90;;;;;;4967624;28;20077;-81
2023/03/30 01:43:11;;;;;;;2.83;2.58;;;11.00;99.90;;;;;;4984893;28;20053;-80
2023/03/30 01:45:45;;;;;;;3.45;2.35;;;11.00;99.90;;;;;;4967070;28;20062;-80
2023/03/30 01:48:44;;;;;;;3.75;2.58;;;11.00;99.90;;;;;;4997630;28;20091;-81
2023/03/30 01:51:25;;;;;;;4.20;1.45;;;11.00;99.90;;;;;;5003855;28;20125;-80
2023/03/30 01:54:03;;;;;;;6.05;2.63;;;11.00;99.90;;;;;;5004518;28;20050;-81
2023/03/30 01:56:41;;;;;;;2.45;1.55;;;11.00;99.90;;;;;;5004724;28;20054;-80
2023/03/30 01:59:32;;;;;;;2.53;1.48;;;10.90;99.90;;;;;;4991325;28;20046;-81
2023/03/30 02:02:02;;;;;;;3.63;2.20;;;10.90;99.90;;;;;;5008377;28;20128;-79
2023/03/30 02:04:32;;;;;;;3.97;1.50;;;10.90;99.90;;;;;;5006139;28;20053;-81
2023/03/30 02:07:06;;;;;;;5.45;2.28;;;10.90;99.90;;;;;;5008128;28;20113;-81
2023/03/30 02:09:34;;;;;;;2.67;2.15;;;10.90;99.90;;;;;;4989833;28;20049;-82
2023/03/30 02:12:01;;;;;;;1.98;1.73;;;11.00;99.90;;;;;;5006984;28;20046;-79
2023/03/30 02:14:31;;;;;;;3.08;2.08;;;11.00;99.90;;;;;;5008021;28;20057;-80
2023/03/30 02:17:02;;;;;;;6.82;2.08;;;10.90;99.90;;;;;;5007762;28;20041;-79
2023/03/30 02:19:29;;;;;;;2.40;1.63;;;10.90;99.90;;;;;;5007238;28;20049;-80
2023/03/30 02:21:55;;;;;;;3.28;1.80;;;10.80;99.90;;;;;;5007564;28;20042;-81
2023/03/30 02:24:26;;;;;;;4.97;2.78;;;10.80;99.90;;;;;;5005696;28;20041;-80
2023/03/30 02:26:53;;;;;;;2.35;1.55;;;10.80;99.90;;;;;;5007215;28;20052;-81
2023/03/30 02:29:21;;;;;;;3.10;1.92;;;10.80;99.90;;;;;;5005780;28;20056;-82
2023/03/30 02:31:49;;;;;;;7.38;2.15;;;10.80;99.90;;;;;;5007196;28;20109;-78
2023/03/30 02:34:35;;;;;;;5.50;1.50;;;10.80;99.90;;;;;;5005939;28;20049;-80
2023/03/30 02:37:10;;;;;;;1.85;1.65;;;10.80;99.90;;;;;;4975816;28;20124;-80
2023/03/30 02:39:54;;;;;;;4.15;1.95;;;10.80;99.90;;;;;;5006967;28;20069;-81
2023/03/30 02:42:54;;;;;;;4.25;1.65;;;10.80;99.90;;;;;;4989145;28;20072;-81
2023/03/30 02:45:59;;;;;;;2.03;1.48;;;10.80;99.90;;;;;;5005616;28;20053;-81
2023/03/30 02:48:48;;;;;;;3.08;1.38;;;10.80;99.90;;;;;;5005363;28;20122;-80
2023/03/30 02:51:34;;;;;;;2.78;1.42;;;10.90;99.90;;;;;;5006298;28;20048;-79
2023/03/30 02:54:18;;;;;;;4.60;2.00;;;10.90;99.90;;;;;;5006583;28;20049;-79
2023/03/30 02:56:49;;;;;;;3.75;1.65;;;10.90;99.90;;;;;;5007026;28;20060;-80
2023/03/30 02:59:23;;;;;;;2.65;1.50;;;10.90;99.90;;;;;;5005369;28;20050;-80
2023/03/30 03:01:59;;;;;;;8.70;2.00;;;10.80;99.90;;;;;;5006513;28;20053;-80
2023/03/30 03:04:27;;;;;;;4.53;1.80;;;10.80;99.90;;;;;;5004736;28;20037;-80
2023/03/30 03:06:54;;;;;;;4.30;1.52;;;10.80;99.90;;;;;;5006428;28;20052;-80
2023/03/30 03:09:23;;;;;;;2.22;1.52;;;10.70;99.90;;;;;;5006529;28;20778;-81
2023/03/30 03:11:51;;;;;;;3.83;1.92;;;10.70;99.90;;;;;;5006230;28;20898;-80
2023/03/30 03:14:17;;;;;;;1.33;1.23;;;10.70;99.90;;;;;;5005586;28;20054;-80
2023/03/30 03:16:43;;;;;;;3.45;1.98;;;10.70;99.90;;;;;;5006242;28;20120;-80
2023/03/30 03:19:09;;;;;;;3.22;2.05;;;10.70;99.90;;;;;;5004780;28;20308;-80
2023/03/30 03:21:35;;;;;;;5.55;2.10;;;10.70;99.90;;;;;;5005490;28;20042;-80
2023/03/30 03:24:02;;;;;;;2.92;1.17;;;10.70;99.90;;;;;;5005805;28;20049;-81
2023/03/30 03:26:28;;;;;;;1.40;1.13;;;10.70;99.90;;;;;;5006352;28;20045;-79
2023/03/30 03:28:54;;;;;;;2.05;1.30;;;10.60;99.90;;;;;;5006506;28;20407;-80
2023/03/30 03:31:20;;;;;;;5.95;2.08;;;10.70;99.90;;;;;;5005327;28;20046;-81
2023/03/30 03:33:46;;;;;;;7.95;1.50;;;10.60;99.90;;;;;;5005226;28;20046;-79
2023/03/30 03:36:12;;;;;;;5.18;1.45;;;10.60;99.90;;;;;;5005914;28;20408;-81
2023/03/30 03:38:37;;;;;;;4.43;1.70;;;10.60;99.90;;;;;;5006080;28;20328;-80
2023/03/30 03:41:03;;;;;;;3.83;1.75;;;10.50;99.90;;;;;;5005457;28;20549;-79
2023/03/30 03:43:29;;;;;;;4.00;2.28;;;10.50;99.90;;;;;;5006058;28;20582;-81
2023/03/30 03:45:55;;;;;;;3.83;2.38;;;10.50;99.90;;;;;;5006246;28;20038;-80
2023/03/30 03:48:23;;;;;;;1.42;1.27;;;10.50;99.90;;;;;;5004264;28;20029;-80
2023/03/30 03:50:55;;;;;;;2.38;1.70;;;10.40;99.90;;;;;;5004301;28;20133;-80
2023/03/30 03:53:22;;;;;;;1.52;1.10;;;10.40;99.90;;;;;;5004096;28;20425;-78
2023/03/30 03:55:47;;;;;;;4.13;2.05;;;10.40;99.90;;;;;;5005672;28;20407;-80
2023/03/30 03:58:14;;;;;;;3.72;1.58;;;10.40;99.90;;;;;;5005286;28;20046;-80
2023/03/30 04:00:40;;;;;;;5.05;1.75;;;10.40;99.90;;;;;;5005625;28;20081;-80
2023/03/30 04:03:07;;;;;;;3.60;2.17;;;10.40;99.90;;;;;;5004217;28;20073;-79
2023/03/30 04:05:34;;;;;;;3.03;2.60;;;10.40;99.90;;;;;;5005140;28;20045;-79
2023/03/30 04:08:00;;;;;;;2.65;2.25;;;10.40;99.90;;;;;;5004416;28;20352;-80
2023/03/30 04:10:26;;;;;;;3.47;1.35;;;10.40;99.90;;;;;;5005727;28;20120;-80
2023/03/30 04:12:55;;;;;;;6.32;3.05;;;10.40;99.90;;;;;;5004556;28;20563;-80
2023/03/30 04:15:21;;;;;;;2.50;2.30;;;10.50;99.90;;;;;;5005271;28;20053;-79
2023/03/30 04:17:48;;;;;;;2.60;1.70;;;10.50;99.90;;;;;;5004513;28;20072;-81
2023/03/30 04:20:15;;;;;;;1.70;1.23;;;10.50;99.90;;;;;;5004336;28;20050;-81
2023/03/30 04:22:42;;;;;;;3.50;1.73;;;10.50;99.90;;;;;;5004052;28;20038;-80
2023/03/30 04:25:10;;;;;;;2.67;1.45;;;10.50;99.90;;;;;;5005126;28;20049;-81
2023/03/30 04:27:36;;;;;;;7.40;2.42;;;10.50;99.90;;;;;;5005232;28;20060;-81
2023/03/30 04:30:05;;;;;;;5.78;2.08;;;10.50;99.90;;;;;;5004553;28;20480;-80
2023/03/30 04:32:33;;;;;;;4.70;1.60;;;10.50;99.90;;;;;;5004476;28;20511;-81
2023/03/30 04:35:02;;;;;;;9.05;1.70;;;10.60;99.90;;;;;;5005451;28;20131;-81
2023/03/30 04:37:31;;;;;;;8.00;2.78;;;10.60;99.90;;;;;;5003774;28;20041;-80
2023/03/30 04:40:01;;;;;;;4.93;1.95;;;10.70;99.90;;;;;;5004039;28;20045;-80
2023/03/30 04:42:33;;;;;;;1.80;1.70;;;10.70;99.90;;;;;;5004341;28;20119;-78
2023/03/30 04:45:05;;;;;;;6.25;1.40;;;10.70;99.90;;;;;;5005647;28;20130;-79
2023/03/30 04:47:31;;;;;;;6.72;1.85;;;10.70;99.90;;;;;;4994618;28;20125;-80
2023/03/30 04:49:56;;;;;;;3.25;1.95;;;10.70;99.90;;;;;;4988481;28;20050;-81
2023/03/30 04:52:22;;;;;;;3.47;2.08;;;10.80;99.90;;;;;;4984455;28;20050;-82
2023/03/30 04:54:48;;;;;;;3.03;1.45;;;10.70;99.90;;;;;;4992650;28;20072;-82
2023/03/30 04:57:14;;;;;;;4.28;1.38;;;10.70;99.90;;;;;;5003541;28;20041;-81
2023/03/30 04:59:40;;;;;;;3.38;1.42;;;10.80;99.90;;;;;;5004799;28;20050;-81
2023/03/30 05:02:06;;;;;;;1.98;1.55;;;10.80;99.90;;;;;;5003770;28;20400;-81
2023/03/30 05:04:32;;;;;;;4.18;1.23;;;10.80;99.90;;;;;;5003917;28;20050;-81
2023/03/30 05:06:57;;;;;;;3.75;2.03;;;10.80;99.90;;;;;;5004016;28;20041;-82
2023/03/30 05:09:23;;;;;;;3.35;1.50;;;10.80;99.90;;;;;;5004272;28;20484;-82
2023/03/30 05:11:49;;;;;;;1.05;0.70;;;10.80;99.90;;;;;;5004913;28;20169;-82
2023/03/30 05:14:15;;;;;;;3.63;1.17;;;10.80;99.90;;;;;;4998678;28;20100;-81
2023/03/30 05:16:41;;;;;;;10.73;3.63;;;10.80;99.90;;;;;;5004161;28;20141;-84
2023/03/30 05:19:07;;;;;;;1.95;1.52;;;10.80;99.90;;;;;;5001523;28;20042;-88
2023/03/30 05:21:33;;;;;;;2.88;1.25;;;10.80;99.90;;;;;;4996738;28;20125;-85
2023/03/30 05:23:59;;;;;;;1.92;1.50;;;10.70;99.90;;;;;;5005141;28;20125;-84
2023/03/30 05:26:25;;;;;;;11.70;3.13;;;10.70;99.90;;;;;;4996784;28;20042;-86
2023/03/30 05:28:51;;;;;;;9.25;2.17;;;10.70;99.90;;;;;;4994277;28;20043;-84
2023/03/30 05:31:18;;;;;;;9.70;2.13;;;10.70;99.90;;;;;;4997207;28;20416;-84
2023/03/30 05:33:44;;;;;;;8.48;1.80;;;10.70;99.90;;;;;;4985676;28;20065;-85
2023/03/30 05:36:10;;;;;;;3.33;1.45;;;10.70;99.90;;;;;;4999435;28;20447;-84
2023/03/30 05:38:35;;;;;;;4.95;1.85;;;10.70;99.90;;;;;;5007403;28;20112;-82
2023/03/30 05:41:03;;;;;;;3.80;1.13;;;10.70;99.90;;;;;;4984321;28;20069;-81
2023/03/30 05:43:29;;;;;;;3.35;1.25;;;10.80;99.90;;;;;;5006892;28;20121;-81
2023/03/30 05:45:55;;;;;;;3.60;1.30;;;10.80;99.90;;;;;;5006441;28;20038;-83
2023/03/30 05:48:21;;;;;;;1.90;1.02;;;10.80;99.90;;;;;;5000349;28;20092;-83
2023/03/30 05:50:47;;;;;;;4.72;1.25;;;10.80;99.90;;;;;;5006358;28;20439;-82
2023/03/30 05:53:13;;;;;;;5.60;1.77;;;10.80;99.90;;;;;;5004909;28;20492;-82
2023/03/30 05:55:38;;;;;;;4.15;1.02;;;10.80;99.90;;;;;;5006780;28;20392;-82
2023/03/30 05:58:04;;;;;;;2.70;1.05;;;10.80;99.90;;;;;;5006621;28;20042;-84
2023/03/30 06:00:32;;;;;;;1.98;1.05;;;10.80;99.90;;;;;;5007294;28;20110;-77
2023/03/30 06:02:58;;;;;;;1.02;0.77;;;10.80;99.90;;;;;;5006021;28;20049;-88
2023/03/30 06:05:24;;;;;;;5.47;1.67;;;10.80;99.90;;;;;;5004284;28;20076;-80
2023/03/30 06:07:52;;;;;;;3.75;0.93;;;10.80;99.90;;;;;;5007465;28;20107;-85
2023/03/30 06:10:17;;;;;;;5.18;1.00;;;10.80;99.90;;;;;;5006451;28;20044;-91
2023/03/30 06:12:43;;;;;;;3.60;1.02;;;10.80;99.90;;;;;;5006722;28;20125;-93
2023/03/30 06:15:09;;;;;;;3.20;2.20;;;10.90;99.90;;;;;;5005041;28;20037;-82
2023/03/30 06:17:35;;;;;;;2.72;1.25;;;10.90;99.90;;;;;;5005556;28;20033;-93
2023/03/30 06:20:07;;;;;;;2.85;1.35;;;10.90;99.90;;;;;;5006165;28;20052;-84
2023/03/30 06:22:33;;;;;;;2.58;0.82;;;10.90;99.90;;;;;;5005803;28;20088;-91
2023/03/30 06:24:59;;;;;;;3.67;0.93;;;10.90;99.90;;;;;;5005936;28;20053;-86
2023/03/30 06:27:25;;;;;;;2.20;1.58;;;10.90;99.90;;;;;;5007324;28;20404;-90
2023/03/30 06:29:51;;;;;;;2.25;1.73;;;10.90;99.90;;;;;;4988015;28;20042;-77
2023/03/30 06:32:17;;;;;;;3.95;1.83;;;10.90;99.90;;;;;;4992428;28;20054;-88
2023/03/30 06:34:43;;;;;;;3.83;1.42;;;10.90;99.90;;;;;;5005205;28;20034;-84
2023/03/30 06:37:08;;;;;;;3.45;1.30;;;10.90;99.90;;;;;;5005116;28;20566;-85
2023/03/30 06:39:36;;;;;;;5.18;1.48;;;10.90;99.90;;;;;;5005623;28;20456;-88
2023/03/30 06:42:04;;;;;;;6.97;2.60;;;10.90;99.90;;;;;;4987780;28;20145;-82
2023/03/30 06:44:30;;;;;;;8.45;1.48;;;10.90;99.90;;;;;;5005521;28;20099;-83
2023/03/30 06:46:56;;;;;;;7.22;2.13;;;10.90;99.90;;;;;;4999487;28;20128;-83
2023/03/30 06:49:21;;;;;;;4.13;2.10;;;10.90;99.90;;;;;;4985812;28;20078;-90
2023/03/30 06:51:47;;;;;;;5.93;2.50;;;10.90;99.90;;;;;;4984560;28;20038;-79
2023/03/30 06:54:13;;;;;;;1.70;1.00;;;10.90;99.90;;;;;;4985164;28;20178;-88
2023/03/30 06:56:39;;;;;;;3.30;1.83;;;11.00;99.90;;;;;;4985998;28;20073;-89
2023/03/30 06:59:04;;;;;;;12.95;2.40;;;10.90;99.90;;;;;;4985304;28;20038;-77
2023/03/30 07:01:30;;;;;;;3.88;1.52;;;10.90;99.90;;;;;;4983485;28;20447;-89
2023/03/30 07:03:56;;;;;;;3.88;1.20;;;11.00;99.90;;;;;;4984845;28;20460;-84
2023/03/30 07:06:21;;;;;;;2.40;0.90;;;11.00;99.90;;;;;;4985193;28;20073;-84
2023/03/30 07:08:47;;;;;;;4.07;2.05;;;11.00;99.90;;;;;;4984553;28;20499;-90
2023/03/30 07:11:13;;;;;;;3.63;1.33;;;10.90;99.90;;;;;;4984984;28;20129;-81
2023/03/30 07:13:39;;;;;;;5.05;1.85;;;10.90;99.90;;;;;;4985561;28;20448;-89
2023/03/30 07:16:05;;;;;;;6.72;3.13;;;11.00;99.90;;;;;;4983719;28;20046;-82
2023/03/30 07:18:31;;;;;;;10.02;1.55;;;11.00;99.90;;;;;;4984489;28;20097;-86
2023/03/30 07:21:00;;;;;;;3.63;1.08;;;11.00;99.90;;;;;;4984870;28;20081;-85
2023/03/30 07:23:26;;;;;;;5.80;1.30;;;11.00;99.90;;;;;;4984317;28;20394;-89
2023/03/30 07:25:51;;;;;;;3.47;1.75;;;11.00;99.90;;;;;;4985297;28;20055;-86
2023/03/30 07:28:17;;;;;;;6.35;2.10;;;11.00;99.90;;;;;;4984896;28;20417;-84
2023/03/30 07:30:43;;;;;;;5.10;1.88;;;11.00;99.90;;;;;;4984706;28;20049;-82
2023/03/30 07:33:09;;;;;;;9.70;2.72;;;11.00;99.90;;;;;;4984272;28;20377;-83
2023/03/30 07:35:34;;;;;;;4.05;2.08;;;11.00;99.90;;;;;;4983859;28;20097;-89
2023/03/30 07:38:00;;;;;;;12.65;2.25;;;11.00;99.90;;;;;;4983298;28;20445;-84
2023/03/30 07:40:26;;;;;;;2.53;1.38;;;11.00;99.90;;;;;;4985353;28;20065;-83
2023/03/30 07:42:51;;;;;;;4.05;0.90;;;11.00;99.90;;;;;;4984980;28;20057;-76
2023/03/30 07:45:17;;;;;;;6.22;1.13;;;11.00;99.90;;;;;;4983178;28;20047;-83
2023/03/30 07:47:43;;;;;;;5.35;1.23;;;11.00;99.90;;;;;;4994086;28;20550;-90
2023/03/30 07:50:08;;;;;;;8.48;1.83;;;11.00;99.90;;;;;;5004157;28;20045;-76
2023/03/30 07:52:34;;;;;;;13.73;2.03;;;11.00;99.90;;;;;;5002778;28;20424;-84
2023/03/30 07:55:00;;;;;;;6.45;1.50;;;11.00;99.90;;;;;;5002713;28;20127;-85
2023/03/30 07:57:26;;;;;;;5.35;2.17;;;11.00;99.90;;;;;;5004230;28;20512;-80
2023/03/30 07:59:51;;;;;;;7.07;2.30;;;11.00;99.90;;;;;;5003466;28;20069;-85
2023/03/30 08:02:17;;;;;;;4.45;1.65;;;11.00;99.90;;;;;;5002810;28;20052;-87
2023/03/30 08:04:43;;;;;;;6.45;1.52;;;11.00;99.90;;;;;;4985425;28;20575;-86
2023/03/30 08:07:10;;;;;;;12.57;2.40;;;11.00;99.90;;;;;;5003509;28;20060;-89
2023/03/30 08:09:35;;;;;;;9.25;1.75;;;11.00;99.90;;;;;;5003204;28;20121;-80
2023/03/30 08:12:01;;;;;;;3.50;1.98;;;11.00;99.90;;;;;;5003093;28;20137;-89
2023/03/30 08:14:27;;;;;;;6.18;2.47;;;11.10;99.90;;;;;;4985704;28;20058;-84
2023/03/30 08:16:54;;;;;;;16.73;1.30;;;11.10;99.90;;;;;;5003203;28;20065;-89
2023/03/30 08:19:22;;;;;;;6.32;1.90;;;11.10;99.90;;;;;;5003569;28;20124;-84
2023/03/30 08:21:47;;;;;;;12.30;1.80;;;11.10;99.90;;;;;;5003676;28;20120;-89
2023/03/30 08:24:13;;;;;;;6.90;1.63;;;11.10;99.90;;;;;;5003776;28;20129;-86
2023/03/30 08:26:39;;;;;;;3.58;1.98;;;11.10;99.90;;;;;;5003309;28;20044;-82
2023/03/30 08:29:07;;;;;;;6.13;1.90;;;11.10;99.90;;;;;;5003545;28;20052;-91
2023/03/30 08:31:33;;;;;;;3.92;2.15;;;11.10;99.90;;;;;;5002623;28;20354;-80
2023/03/30 08:33:59;;;;;;;10.45;2.40;;;11.10;99.90;;;;;;5004160;28;20038;-86
2023/03/30 08:36:25;;;;;;;5.45;2.60;;;11.10;99.90;;;;;;5004234;28;20048;-84
2023/03/30 08:38:53;;;;;;;4.65;1.40;;;11.20;99.90;;;;;;5002175;28;20042;-86
2023/03/30 08:41:28;;;;;;;4.50;1.10;;;11.20;99.90;;;;;;5003462;28;20041;-83
2023/03/30 08:44:00;;;;;;;6.75;1.55;;;11.20;99.90;;;;;;5003731;28;20042;-85
2023/03/30 08:46:25;;;;;;;7.18;1.33;;;11.30;99.90;;;;;;4984324;28;20081;-82
2023/03/30 08:48:53;;;;;;;1.95;0.90;;;11.40;99.90;;;;;;4984015;28;20081;-81
2023/03/30 08:51:29;;;;;;;6.43;1.50;;;11.50;99.90;;;;;;4983967;28;20722;-90
2023/03/30 08:54:00;;;;;;;9.10;1.88;;;11.50;99.90;;;;;;4982724;28;20072;-84
2023/03/30 08:56:50;;;;;;;5.18;1.50;;;11.60;99.90;;;;;;4984781;28;20043;-89
2023/03/30 08:59:36;;;;;;;4.13;1.38;;;11.60;99.90;;;;;;4983761;28;20151;-89
2023/03/30 09:02:27;;;;;;;5.80;1.13;;;11.70;99.90;;;;;;4981058;28;20043;-83
2023/03/30 09:05:00;;;;;;;10.57;1.95;;;11.80;99.90;;;;;;4984077;28;20112;-84
2023/03/30 09:07:39;;;;;;;3.72;1.58;;;11.80;99.90;;;;;;4969747;28;20042;-84
2023/03/30 09:10:14;;;;;;;1.08;0.90;;;11.90;99.90;;;;;;4986253;28;20054;-83
2023/03/30 09:12:50;;;;;;;6.05;2.30;;;11.90;99.90;;;;;;4986229;28;20058;-81
2023/03/30 09:15:30;;;;;;;1.65;0.93;;;11.90;99.90;;;;;;4986414;28;20043;-85
2023/03/30 09:18:06;;;;;;;4.57;2.08;;;11.90;99.90;;;;;;4987252;28;20077;-89
2023/03/30 09:20:34;;;;;;;7.82;1.52;;;11.90;99.90;;;;;;4987819;28;20042;-87
2023/03/30 09:23:01;;;;;;;10.02;2.40;;;11.90;99.90;;;;;;4985514;28;20057;-80
2023/03/30 09:25:33;;;;;;;5.70;1.25;;;11.90;99.90;;;;;;4986964;28;20049;-87
2023/03/30 09:28:21;;;;;;;16.95;2.15;;;11.90;99.90;;;;;;4986488;28;20047;-90
2023/03/30 09:30:52;;;;;;;4.03;0.93;;;11.90;99.90;;;;;;4987481;28;20077;-85
2023/03/30 09:34:02;;;;;;;5.82;1.33;;;11.80;99.90;;;;;;4986283;28;20050;-84
2023/03/30 09:36:43;;;;;;;4.88;1.08;;;11.80;99.90;;;;;;4978162;28;20081;-81
2023/03/30 09:39:16;;;;;;;4.93;1.58;;;11.80;99.90;;;;;;4987385;28;20405;-90
2023/03/30 09:41:55;;;;;;;4.55;1.25;;;11.80;99.90;;;;;;4987052;28;20124;-88
2023/03/30 09:44:45;;;;;;;4.30;2.88;;;11.80;99.90;;;;;;4985685;28;20046;-79
2023/03/30 09:47:25;;;;;;;1.90;0.98;;;11.80;99.90;;;;;;4991961;28;20049;-89
2023/03/30 09:49:59;;;;;;;3.50;0.70;;;11.80;99.90;;;;;;5006498;28;20073;-81
2023/03/30 09:52:28;;;;;;;5.40;1.33;;;11.80;99.90;;;;;;5006863;28;20467;-84
2023/03/30 09:54:53;;;;;;;5.65;1.60;;;11.80;99.90;;;;;;5005236;28;20046;-83
2023/03/30 09:57:27;;;;;;;4.70;1.67;;;11.80;99.90;;;;;;5006301;28;20148;-83
2023/03/30 09:59:55;;;;;;;1.58;0.88;;;11.90;99.90;;;;;;5005405;28;20045;-88
2023/03/30 10:02:24;;;;;;;18.38;2.08;;;11.90;99.90;;;;;;5004966;28;20544;-91
2023/03/30 10:04:52;;;;;;;4.07;1.23;;;11.90;99.90;;;;;;5005092;28;20037;-84
2023/03/30 10:07:22;;;;;;;8.85;1.70;;;11.90;99.90;;;;;;5006148;28;20053;-88
2023/03/30 10:09:47;;;;;;;6.65;1.75;;;11.90;99.90;;;;;;5006021;28;20034;-83
2023/03/30 10:12:14;;;;;;;8.05;1.58;;;12.00;99.90;;;;;;5004665;28;20052;-86
2023/03/30 10:14:40;;;;;;;10.95;1.42;;;11.90;99.90;;;;;;5006123;28;20042;-83
2023/03/30 10:17:06;;;;;;;7.40;1.83;;;12.00;99.90;;;;;;5004635;28;20038;-92
2023/03/30 10:19:40;;;;;;;4.80;1.92;;;12.00;99.90;;;;;;5003963;28;20558;-77
2023/03/30 10:22:21;;;;;;;5.65;1.13;;;12.00;99.90;;;;;;5006141;28;20042;-89
2023/03/30 10:24:54;;;;;;;6.28;1.63;;;12.00;99.90;;;;;;5005844;28;20046;-83
2023/03/30 10:27:29;;;;;;;8.65;1.50;;;12.10;99.90;;;;;;5004300;28;21170;-81
2023/03/30 10:29:54;;;;;;;5.70;1.80;;;12.10;99.90;;;;;;5004847;28;20400;-80
2023/03/30 10:32:28;;;;;;;7.10;1.95;;;12.10;99.90;;;;;;5004867;28;20068;-78
2023/03/30 10:34:56;;;;;;;4.63;1.15;;;12.10;99.90;;;;;;5004692;28;20432;-90
2023/03/30 10:37:37;;;;;;;6.63;1.15;;;12.20;99.90;;;;;;5004397;28;20076;-81
2023/03/30 10:40:15;;;;;;;4.65;1.48;;;12.10;99.90;;;;;;5005533;28;20050;-86
2023/03/30 10:42:41;;;;;;;4.93;1.52;;;12.20;99.90;;;;;;5005269;28;20328;-80
2023/03/30 10:45:14;;;;;;;7.38;2.25;;;12.20;99.90;;;;;;5005129;28;20120;-85
2023/03/30 10:48:02;;;;;;;8.38;2.42;;;12.30;99.90;;;;;;4992546;28;20051;-91
2023/03/30 10:50:45;;;;;;;6.20;1.30;;;12.30;99.90;;;;;;4985058;28;20052;-89
2023/03/30 10:53:11;;;;;;;6.45;1.88;;;12.40;99.90;;;;;;4973746;28;20515;-77
2023/03/30 10:55:58;;;;;;;8.48;1.88;;;12.50;99.90;;;;;;5004995;28;20093;-89
2023/03/30 10:58:51;;;;;;;3.70;1.13;;;12.60;99.90;;;;;;5005176;28;20131;-78
2023/03/30 11:01:29;;;;;;;2.20;1.20;;;12.60;99.90;;;;;;5004392;28;20037;-89
2023/03/30 11:04:25;;;;;;;4.18;0.90;;;12.60;99.90;;;;;;5000627;28;20480;-90
2023/03/30 11:06:53;;;;;;;3.88;1.52;;;12.70;99.90;;;;;;4985203;28;20460;-83
2023/03/30 11:09:26;;;;;;;2.50;1.23;;;12.70;99.90;;;;;;4997282;28;20042;-91
2023/03/30 11:12:00;;;;;;;8.27;2.72;;;12.70;99.90;;;;;;4975933;28;20097;-88
2023/03/30 11:14:48;;;;;;;9.95;2.00;;;12.80;99.90;;;;;;4986623;28;20077;-76
2023/03/30 11:17:22;;;;;;;4.53;0.98;;;12.80;99.90;;;;;;5003312;28;20137;-86
2023/03/30 11:19:54;;;;;;;9.85;1.27;;;12.80;99.90;;;;;;4988113;28;20046;-84
2023/03/30 11:22:41;;;;;;;9.52;1.25;;;12.90;99.90;;;;;;5005641;28;20042;-88
2023/03/30 11:25:19;;;;;;;6.28;0.80;;;12.90;99.90;;;;;;5005233;28;20400;-82
2023/03/30 11:27:57;;;;;;;4.60;1.42;;;12.90;99.90;;;;;;5004639;28;20125;-88
2023/03/30 11:30:28;;;;;;;17.55;3.28;;;12.90;99.90;;;;;;4999169;28;20463;-83
2023/03/30 11:33:35;;;;;;;6.88;2.17;;;12.90;99.90;;;;;;4977016;28;20484;-87
2023/03/30 11:36:10;;;;;;;3.80;1.23;;;13.00;99.90;;;;;;4985811;28;20046;-77
2023/03/30 11:38:49;;;;;;;7.03;2.13;;;13.00;99.90;;;;;;5000705;28;20121;-92
2023/03/30 11:41:21;;;;;;;4.70;2.20;;;13.00;99.90;;;;;;5002774;28;20438;-83
2023/03/30 11:43:47;;;;;;;13.32;2.33;;;13.10;99.90;;;;;;4997870;28;20504;-87
2023/03/30 11:46:20;;;;;;;3.97;1.77;;;13.10;99.90;;;;;;4986534;28;20045;-88
2023/03/30 11:49:06;;;;;;;7.55;2.15;;;13.10;99.90;;;;;;4985958;28;20038;-86
2023/03/30 11:52:10;;;;;;;6.43;2.55;;;13.20;99.90;;;;;;4998143;28;20042;-88
2023/03/30 11:55:10;;;;;;;2.58;1.52;;;13.20;99.90;;;;;;4999747;28;20034;-85
2023/03/30 11:57:42;;;;;;;9.02;2.05;;;13.20;99.90;;;;;;5002833;28;20153;-85
2023/03/30 12:00:27;;;;;;;4.90;1.75;;;13.30;99.90;;;;;;5004745;28;20042;-82
2023/03/30 12:03:20;;;;;;;8.77;1.88;;;13.30;99.90;;;;;;4996324;28;20053;-78
2023/03/30 12:06:05;;;;;;;3.92;2.00;;;13.30;99.90;;;;;;5004837;28;20042;-90
2023/03/30 12:08:51;;;;;;;2.83;1.30;;;13.30;99.90;;;;;;5005955;28;20048;-88
2023/03/30 12:11:26;;;;;;;4.72;1.17;;;13.30;99.90;;;;;;5004907;28;20053;-86
2023/03/30 12:13:53;;;;;;;7.43;1.60;;;13.40;99.90;;;;;;4992627;28;20058;-82
2023/03/30 12:16:45;;;;;;;9.02;2.53;;;13.50;99.90;;;;;;4995848;28;20111;-85
2023/03/30 12:19:26;;;;;;;2.78;1.38;;;13.50;99.90;;;;;;5005487;28;20096;-85
2023/03/30 12:22:27;;;;;;;5.47;1.67;;;13.60;99.90;;;;;;5000364;28;20057;-82
2023/03/30 12:25:06;;;;;;;6.25;1.63;;;13.60;99.90;;;;;;4982086;28;20062;-85
2023/03/30 12:27:36;;;;;;;8.40;2.70;;;13.70;99.90;;;;;;4984437;28;20455;-82
2023/03/30 12:30:23;;;;;;;3.28;1.10;;;13.70;99.90;;;;;;5000264;28;20656;-85
2023/03/30 12:33:10;;;;;;;8.82;1.95;;;13.70;99.90;;;;;;4998530;28;20058;-82
2023/03/30 12:35:48;;;;;;;6.43;1.42;;;13.60;99.90;;;;;;5001217;28;20049;-79
2023/03/30 12:38:24;;;;;;;4.25;1.10;;;13.60;99.90;;;;;;5002354;28;20048;-81
2023/03/30 12:41:13;;;;;;;19.40;2.50;;;13.50;99.90;;;;;;5001347;28;20084;-82
2023/03/30 12:43:53;;;;;;;8.02;1.48;;;13.50;99.90;;;;;;4998784;28;20042;-80
2023/03/30 12:46:27;;;;;;;6.18;1.50;;;13.50;99.90;;;;;;4993885;28;20038;-83
2023/03/30 12:49:19;;;;;;;5.00;1.70;;;13.50;99.90;;;;;;5003569;28;20524;-85
2023/03/30 12:52:12;;;;;;;10.63;2.63;;;13.40;99.90;;;;;;5003338;28;20133;-87
2023/03/30 12:55:14;;;;;;;11.95;2.00;;;13.40;99.90;;;;;;5003815;28;20121;-79
2023/03/30 12:57:59;;;;;;;7.03;2.05;;;13.50;99.90;;;;;;4985492;28;20578;-85
2023/03/30 13:00:44;;;;;;;7.72;1.55;;;13.40;99.90;;;;;;5003064;28;20045;-81
2023/03/30 13:03:39;;;;;;;6.15;1.83;;;13.40;99.90;;;;;;5002232;28;20042;-79
2023/03/30 13:06:19;;;;;;;7.40;2.45;;;13.40;99.90;;;;;;5000704;28;20046;-83
2023/03/30 13:08:45;;;;;;;5.35;2.53;;;13.40;99.90;;;;;;5003772;28;20520;-88
2023/03/30 13:11:15;;;;;;;7.43;2.38;;;13.40;99.90;;;;;;4992027;28;20041;-93